Time;durP1;ratioP1;P1;durP2;ratioP2;P2;SDS_P1;SDS_P2;PMS_P1;PMS_P2;Temp;Humidity;BMP_temperature;BMP_pressure;BME280_temperature;BME280_humidity;BME280_pressure;Samples;Min_cycle;Max_cycle;Signal;HPM_P1;HPM_P2
2022/09/16 00:00:31;;;;;;;30.02;18.15;;;12.10;99.90;;;;;;5050011;28;20542;-70
2022/09/16 00:02:57;;;;;;;27.25;17.20;;;12.00;99.90;;;;;;5050312;28;20092;-69
2022/09/16 00:05:23;;;;;;;35.47;18.27;;;12.00;99.90;;;;;;5050144;28;20060;-69
2022/09/16 00:07:49;;;;;;;29.08;19.05;;;12.00;99.90;;;;;;5050178;28;20474;-69
2022/09/16 00:10:16;;;;;;;23.58;16.83;;;12.00;99.90;;;;;;5050167;28;20108;-69
2022/09/16 00:12:41;;;;;;;21.65;14.38;;;12.00;99.90;;;;;;5050200;28;20021;-70
2022/09/16 00:15:08;;;;;;;24.65;14.95;;;12.00;99.90;;;;;;5050075;28;20048;-70
2022/09/16 00:17:33;;;;;;;22.00;13.43;;;12.00;99.90;;;;;;5050094;28;20025;-70
2022/09/16 00:19:59;;;;;;;19.15;12.85;;;12.00;99.90;;;;;;5050115;28;20036;-69
2022/09/16 00:22:27;;;;;;;20.25;12.02;;;12.00;99.90;;;;;;5049946;28;20032;-70
2022/09/16 00:24:53;;;;;;;17.52;12.15;;;11.90;99.90;;;;;;5050056;28;20066;-70
2022/09/16 00:27:18;;;;;;;17.85;12.18;;;11.90;99.90;;;;;;5048589;28;20097;-70
2022/09/16 00:29:44;;;;;;;21.50;12.02;;;11.90;99.90;;;;;;5050032;28;20562;-69
2022/09/16 00:32:10;;;;;;;17.00;10.80;;;11.90;99.90;;;;;;5031125;28;20021;-70
2022/09/16 00:34:35;;;;;;;21.65;11.00;;;11.80;99.90;;;;;;5029873;28;20029;-69
2022/09/16 00:37:02;;;;;;;17.20;10.98;;;11.80;99.90;;;;;;5029778;28;20457;-70
2022/09/16 00:39:28;;;;;;;16.67;11.13;;;11.80;99.90;;;;;;5029913;28;20021;-70
2022/09/16 00:41:54;;;;;;;20.05;11.13;;;11.80;99.90;;;;;;5029742;28;20018;-70
2022/09/16 00:44:54;;;;;;;19.27;11.07;;;11.80;99.90;;;;;;5030061;28;20028;-69
2022/09/16 00:47:31;;;;;;;15.90;10.50;;;11.80;99.90;;;;;;5049751;28;20040;-69
2022/09/16 00:50:02;;;;;;;20.45;11.07;;;11.80;99.90;;;;;;5048421;28;20033;-69
2022/09/16 00:52:29;;;;;;;15.40;11.02;;;11.80;99.90;;;;;;5049798;28;20021;-70
2022/09/16 00:54:55;;;;;;;18.70;11.57;;;11.90;99.90;;;;;;5049391;28;20385;-70
2022/09/16 00:57:21;;;;;;;17.20;11.57;;;11.90;99.90;;;;;;5048042;28;20013;-70
2022/09/16 00:59:53;;;;;;;21.17;11.35;;;11.80;99.90;;;;;;5048827;28;20053;-70
2022/09/16 01:02:20;;;;;;;15.40;11.35;;;11.80;99.90;;;;;;5052966;28;20025;-69
2022/09/16 01:04:50;;;;;;;18.85;11.45;;;11.80;99.90;;;;;;5051651;28;20049;-69
2022/09/16 01:07:19;;;;;;;21.80;12.15;;;11.80;99.90;;;;;;5053224;28;20364;-70
2022/09/16 01:09:45;;;;;;;16.33;11.15;;;11.80;99.90;;;;;;5053088;28;20470;-69
2022/09/16 01:12:11;;;;;;;17.02;10.65;;;11.80;99.90;;;;;;5052772;28;20097;-70
2022/09/16 01:14:52;;;;;;;18.15;12.20;;;11.80;99.90;;;;;;5052693;28;20531;-70
2022/09/16 01:17:32;;;;;;;17.00;11.25;;;11.80;99.90;;;;;;5052816;28;20045;-70
2022/09/16 01:20:18;;;;;;;13.82;10.43;;;11.80;99.90;;;;;;5052825;28;20386;-69
2022/09/16 01:22:50;;;;;;;15.18;10.65;;;11.80;99.90;;;;;;5052651;28;20028;-70
2022/09/16 01:25:46;;;;;;;18.95;10.43;;;11.80;99.90;;;;;;5052816;28;20029;-70
2022/09/16 01:28:27;;;;;;;18.90;11.88;;;11.70;99.90;;;;;;5052435;28;20497;-70
2022/09/16 01:31:11;;;;;;;17.42;10.32;;;11.70;99.90;;;;;;5052457;28;20113;-69
2022/09/16 01:33:45;;;;;;;19.23;10.98;;;11.70;99.90;;;;;;5052738;28;20037;-70
2022/09/16 01:36:30;;;;;;;15.98;9.52;;;11.70;99.90;;;;;;5052356;28;20443;-71
2022/09/16 01:39:24;;;;;;;18.17;10.75;;;11.70;99.90;;;;;;5052581;28;20501;-69
2022/09/16 01:42:17;;;;;;;14.75;9.88;;;11.70;99.90;;;;;;5052247;28;20104;-70
2022/09/16 01:44:47;;;;;;;16.48;10.05;;;11.70;99.90;;;;;;5048614;28;20034;-69
2022/09/16 01:47:33;;;;;;;15.73;9.98;;;11.70;99.90;;;;;;5032411;28;20169;-70
2022/09/16 01:50:20;;;;;;;13.57;9.50;;;11.70;99.90;;;;;;5031288;28;20022;-70
2022/09/16 01:52:58;;;;;;;13.23;9.60;;;11.70;99.90;;;;;;5031101;28;20045;-70
2022/09/16 01:55:41;;;;;;;13.43;8.90;;;11.70;99.90;;;;;;5032229;28;20037;-70
2022/09/16 01:58:21;;;;;;;15.40;8.43;;;11.70;99.90;;;;;;5032257;28;20022;-70
2022/09/16 02:00:50;;;;;;;14.45;8.13;;;11.70;99.90;;;;;;5032288;28;20402;-70
2022/09/16 02:03:21;;;;;;;13.10;8.05;;;11.70;99.90;;;;;;5030944;28;20029;-69
2022/09/16 02:05:57;;;;;;;14.57;7.80;;;11.70;99.90;;;;;;5032344;28;20391;-70
2022/09/16 02:08:32;;;;;;;9.38;7.07;;;11.70;99.90;;;;;;5031981;28;20085;-70
2022/09/16 02:11:00;;;;;;;14.27;8.98;;;11.70;99.90;;;;;;5030380;28;20112;-69
2022/09/16 02:13:31;;;;;;;11.23;7.97;;;11.70;99.90;;;;;;5031993;27;20021;-70
2022/09/16 02:16:03;;;;;;;10.48;7.97;;;11.70;99.90;;;;;;5031983;28;20041;-70
2022/09/16 02:18:34;;;;;;;9.95;7.95;;;11.60;99.90;;;;;;5031799;28;20032;-69
2022/09/16 02:21:03;;;;;;;13.68;7.70;;;11.60;99.90;;;;;;5030707;28;20487;-69
2022/09/16 02:23:33;;;;;;;12.10;7.60;;;11.60;99.90;;;;;;5031696;28;20030;-70
2022/09/16 02:26:01;;;;;;;13.73;8.60;;;11.50;99.90;;;;;;5030948;28;20416;-69
2022/09/16 02:28:34;;;;;;;10.65;7.25;;;11.50;99.90;;;;;;5031739;28;20022;-70
2022/09/16 02:31:05;;;;;;;10.77;7.93;;;11.40;99.90;;;;;;5039880;28;20029;-69
2022/09/16 02:33:57;;;;;;;14.35;8.35;;;11.50;99.90;;;;;;5051515;28;20022;-70
2022/09/16 02:36:25;;;;;;;15.10;7.60;;;11.40;99.90;;;;;;5055276;28;20078;-69
2022/09/16 02:38:59;;;;;;;16.02;8.07;;;11.30;99.90;;;;;;5050222;28;20031;-70
2022/09/16 02:41:25;;;;;;;12.43;7.78;;;11.30;99.90;;;;;;5051553;28;20078;-70
2022/09/16 02:43:51;;;;;;;11.85;7.68;;;11.20;99.90;;;;;;5051390;28;20029;-70
2022/09/16 02:46:54;;;;;;;13.82;7.53;;;11.10;99.90;;;;;;5034412;28;20420;-69
2022/09/16 02:49:43;;;;;;;13.60;7.63;;;11.10;99.90;;;;;;5031371;28;20021;-70
2022/09/16 02:52:32;;;;;;;16.95;7.80;;;11.10;99.90;;;;;;5031405;28;20925;-70
2022/09/16 02:55:04;;;;;;;15.02;8.32;;;11.00;99.90;;;;;;5031263;28;20094;-70
2022/09/16 02:57:30;;;;;;;14.93;8.40;;;11.10;99.90;;;;;;5031330;28;20063;-70
2022/09/16 02:59:56;;;;;;;14.45;8.18;;;11.00;99.90;;;;;;5031321;28;20102;-70
2022/09/16 03:02:22;;;;;;;11.18;8.02;;;11.00;99.90;;;;;;5031278;28;20163;-70
2022/09/16 03:04:48;;;;;;;14.77;8.98;;;11.00;99.90;;;;;;5031285;28;20071;-70
2022/09/16 03:07:15;;;;;;;20.02;8.10;;;11.00;99.90;;;;;;5031141;28;20036;-70
2022/09/16 03:09:44;;;;;;;13.75;8.40;;;11.00;99.90;;;;;;5029849;28;20153;-70
2022/09/16 03:12:31;;;;;;;11.93;8.13;;;10.90;99.90;;;;;;5031179;28;20029;-70
2022/09/16 03:15:27;;;;;;;9.10;7.70;;;11.00;99.90;;;;;;5030973;28;20398;-70
2022/09/16 03:18:05;;;;;;;17.45;8.70;;;10.90;99.90;;;;;;5031070;28;20026;-70
2022/09/16 03:20:59;;;;;;;12.48;8.75;;;10.90;99.90;;;;;;5031034;28;20108;-70
2022/09/16 03:24:00;;;;;;;13.40;9.32;;;10.80;99.90;;;;;;5029994;28;20034;-70
2022/09/16 03:26:32;;;;;;;15.13;9.20;;;10.80;99.90;;;;;;5033511;28;20101;-69
2022/09/16 03:29:11;;;;;;;17.60;9.45;;;10.80;99.90;;;;;;5030971;28;20459;-70
2022/09/16 03:31:51;;;;;;;14.05;9.52;;;10.80;99.90;;;;;;5045723;28;20064;-70
2022/09/16 03:34:25;;;;;;;12.43;8.85;;;10.70;99.90;;;;;;5050674;28;20029;-70
2022/09/16 03:36:59;;;;;;;17.83;9.57;;;10.80;99.90;;;;;;5050780;28;20040;-69
2022/09/16 03:39:24;;;;;;;14.77;9.00;;;10.70;99.90;;;;;;5050495;28;20065;-69
2022/09/16 03:41:50;;;;;;;15.02;9.48;;;10.70;99.90;;;;;;5050759;28;20100;-70
2022/09/16 03:44:16;;;;;;;13.93;9.20;;;10.70;99.90;;;;;;5049677;28;20036;-70
2022/09/16 03:46:42;;;;;;;17.67;10.48;;;10.70;99.90;;;;;;5029410;28;20022;-70
2022/09/16 03:49:08;;;;;;;15.85;10.40;;;10.70;99.90;;;;;;5030593;28;20025;-69
2022/09/16 03:51:33;;;;;;;14.80;10.25;;;10.70;99.90;;;;;;5030571;28;20510;-69
2022/09/16 03:53:59;;;;;;;20.75;9.05;;;10.70;99.90;;;;;;5030410;28;20026;-70
2022/09/16 03:56:24;;;;;;;13.95;8.93;;;10.80;99.90;;;;;;5030387;28;20041;-69
2022/09/16 03:58:50;;;;;;;15.00;9.35;;;10.70;99.90;;;;;;5030260;28;20032;-69
2022/09/16 04:01:16;;;;;;;14.32;9.27;;;10.70;99.90;;;;;;5030568;28;20052;-70
2022/09/16 04:03:42;;;;;;;17.45;9.18;;;10.70;99.90;;;;;;5030471;28;20071;-69
2022/09/16 04:06:08;;;;;;;17.98;8.82;;;10.70;99.90;;;;;;5030361;28;20022;-71
2022/09/16 04:08:34;;;;;;;17.15;9.40;;;10.70;99.90;;;;;;5029017;28;20061;-69
2022/09/16 04:11:04;;;;;;;13.07;8.43;;;10.60;99.90;;;;;;5030385;28;20066;-69
2022/09/16 04:13:32;;;;;;;14.77;8.63;;;10.60;99.90;;;;;;5030165;28;20047;-70
2022/09/16 04:15:58;;;;;;;16.25;8.93;;;10.60;99.90;;;;;;5030201;28;20121;-70
2022/09/16 04:18:24;;;;;;;12.35;7.60;;;10.50;99.90;;;;;;5030294;28;20020;-70
2022/09/16 04:20:49;;;;;;;13.88;9.13;;;10.50;99.90;;;;;;5030179;28;20390;-70
2022/09/16 04:23:15;;;;;;;13.25;7.18;;;10.50;99.90;;;;;;5030102;28;20018;-70
2022/09/16 04:25:41;;;;;;;13.05;8.18;;;10.40;99.90;;;;;;5030033;28;20509;-69
2022/09/16 04:28:07;;;;;;;12.88;8.23;;;10.40;99.90;;;;;;5028911;28;20029;-70
2022/09/16 04:30:33;;;;;;;14.75;7.70;;;10.30;99.90;;;;;;5036362;28;20025;-69
2022/09/16 04:32:58;;;;;;;20.58;7.05;;;10.30;99.90;;;;;;5049872;28;20021;-71
2022/09/16 04:35:24;;;;;;;9.10;6.65;;;10.30;99.90;;;;;;5052857;28;20036;-69
2022/09/16 04:37:51;;;;;;;11.77;7.32;;;10.30;99.90;;;;;;5053387;28;20017;-70
2022/09/16 04:40:17;;;;;;;10.73;7.65;;;10.30;99.90;;;;;;5053089;28;20033;-69
2022/09/16 04:42:49;;;;;;;10.90;7.90;;;10.30;99.90;;;;;;5040091;28;20046;-70
2022/09/16 04:45:15;;;;;;;10.70;7.72;;;10.20;99.90;;;;;;5042357;28;20043;-70
2022/09/16 04:47:41;;;;;;;10.40;6.63;;;10.20;99.90;;;;;;5035790;28;20026;-70
2022/09/16 04:50:07;;;;;;;9.15;6.55;;;10.20;99.90;;;;;;5033018;28;20382;-70
2022/09/16 04:52:33;;;;;;;12.00;7.15;;;10.20;99.90;;;;;;5033161;28;20064;-70
2022/09/16 04:54:58;;;;;;;11.95;7.13;;;10.20;99.90;;;;;;5042321;28;20065;-69
2022/09/16 04:57:24;;;;;;;9.95;6.40;;;10.20;99.90;;;;;;5049449;28;20025;-70
2022/09/16 04:59:49;;;;;;;12.18;6.65;;;10.20;99.90;;;;;;5032746;28;20068;-70
2022/09/16 05:02:15;;;;;;;14.88;8.45;;;10.20;99.90;;;;;;5033035;28;20028;-70
2022/09/16 05:04:41;;;;;;;11.25;7.30;;;10.30;99.90;;;;;;5032445;28;20034;-70
2022/09/16 05:07:07;;;;;;;10.07;7.15;;;10.30;99.90;;;;;;5032936;28;20100;-70
2022/09/16 05:09:34;;;;;;;15.30;9.95;;;10.40;99.90;;;;;;5031486;28;20575;-69
2022/09/16 05:11:59;;;;;;;12.05;8.63;;;10.50;99.90;;;;;;5032861;28;20025;-70
2022/09/16 05:14:26;;;;;;;13.13;8.35;;;10.60;99.90;;;;;;5031488;28;20479;-70
2022/09/16 05:16:52;;;;;;;12.75;7.32;;;10.70;99.90;;;;;;5032918;28;20050;-70
2022/09/16 05:19:18;;;;;;;12.18;8.43;;;10.80;99.90;;;;;;5033012;28;20082;-70
2022/09/16 05:21:44;;;;;;;14.18;9.27;;;10.90;99.90;;;;;;5032951;28;20029;-72
2022/09/16 05:24:12;;;;;;;12.75;8.63;;;10.90;99.90;;;;;;5032117;28;20106;-71
2022/09/16 05:26:40;;;;;;;14.73;8.98;;;11.00;99.90;;;;;;5046366;28;20033;-71
2022/09/16 05:29:09;;;;;;;9.85;7.25;;;11.10;99.90;;;;;;5037257;28;20021;-71
2022/09/16 05:31:38;;;;;;;12.77;8.32;;;11.10;99.90;;;;;;5046894;28;20375;-71
2022/09/16 05:34:05;;;;;;;11.18;8.05;;;11.10;99.90;;;;;;5051322;28;20073;-71
2022/09/16 05:36:33;;;;;;;11.90;7.85;;;11.30;99.90;;;;;;5047523;27;20069;-70
2022/09/16 05:39:00;;;;;;;14.77;7.13;;;11.30;99.90;;;;;;5050141;27;20036;-72
2022/09/16 05:41:26;;;;;;;11.82;8.20;;;11.40;99.90;;;;;;5051063;27;20051;-71
2022/09/16 05:43:53;;;;;;;15.50;7.90;;;11.50;99.90;;;;;;5049168;28;20021;-71
2022/09/16 05:46:20;;;;;;;13.20;8.45;;;11.50;99.90;;;;;;5041435;28;20040;-71
2022/09/16 05:48:47;;;;;;;9.32;7.20;;;11.60;99.90;;;;;;5051965;28;20048;-71
2022/09/16 05:51:16;;;;;;;15.15;8.77;;;11.70;99.90;;;;;;5051752;28;20033;-72
2022/09/16 05:53:42;;;;;;;12.30;7.80;;;11.80;99.90;;;;;;5050296;28;20081;-71
2022/09/16 05:56:11;;;;;;;12.40;8.52;;;11.80;99.90;;;;;;5049780;28;20033;-72
2022/09/16 05:58:38;;;;;;;12.30;6.63;;;11.90;99.90;;;;;;5041630;28;20083;-71
2022/09/16 06:01:11;;;;;;;10.32;7.88;;;12.00;99.90;;;;;;5040770;28;20056;-71
2022/09/16 06:03:39;;;;;;;11.80;7.65;;;12.00;99.90;;;;;;5039884;28;20591;-71
2022/09/16 06:06:13;;;;;;;10.70;7.60;;;12.10;99.90;;;;;;5041590;28;20009;-71
2022/09/16 06:08:40;;;;;;;17.05;9.65;;;12.10;99.90;;;;;;5038806;28;20488;-71
2022/09/16 06:11:08;;;;;;;14.10;9.52;;;12.20;99.90;;;;;;5038383;28;20487;-71
2022/09/16 06:13:34;;;;;;;20.42;11.15;;;12.30;99.90;;;;;;5040325;28;20383;-71
2022/09/16 06:16:00;;;;;;;12.98;9.32;;;12.30;99.90;;;;;;5040985;28;20029;-71
2022/09/16 06:18:28;;;;;;;15.45;9.38;;;12.20;99.90;;;;;;5042062;28;20033;-72
2022/09/16 06:20:54;;;;;;;14.57;9.30;;;12.20;99.90;;;;;;5041655;28;20028;-71
2022/09/16 06:23:21;;;;;;;15.63;10.07;;;12.30;99.90;;;;;;5040096;28;20100;-71
2022/09/16 06:25:47;;;;;;;13.98;9.65;;;12.30;99.90;;;;;;5041314;28;20549;-71
2022/09/16 06:28:13;;;;;;;12.43;8.93;;;12.30;99.90;;;;;;5041792;28;20022;-71
2022/09/16 06:30:39;;;;;;;15.90;10.38;;;12.30;99.90;;;;;;5040866;28;20110;-71
2022/09/16 06:33:06;;;;;;;14.35;9.35;;;12.30;99.90;;;;;;5042016;28;20053;-72
2022/09/16 06:35:34;;;;;;;12.88;8.75;;;12.30;99.90;;;;;;5041943;28;20029;-71
2022/09/16 06:38:00;;;;;;;13.93;9.13;;;12.40;99.90;;;;;;5041994;28;20025;-71
2022/09/16 06:40:26;;;;;;;15.63;9.27;;;12.50;99.90;;;;;;5040201;28;20104;-71
2022/09/16 06:42:53;;;;;;;16.60;9.95;;;12.50;99.90;;;;;;5050300;28;20482;-71
2022/09/16 06:45:19;;;;;;;16.83;10.65;;;12.60;99.90;;;;;;5041185;28;20022;-71
2022/09/16 06:47:45;;;;;;;14.32;9.50;;;12.60;99.90;;;;;;5031526;28;20387;-72
2022/09/16 06:50:10;;;;;;;15.10;9.43;;;12.70;99.90;;;;;;5030375;28;20026;-71
2022/09/16 06:52:36;;;;;;;13.25;8.80;;;12.60;99.90;;;;;;5031430;28;20025;-73
2022/09/16 06:55:03;;;;;;;15.10;9.15;;;12.60;99.90;;;;;;5031405;28;20062;-71
2022/09/16 06:57:29;;;;;;;13.45;8.75;;;12.50;99.90;;;;;;5031357;28;20030;-71
2022/09/16 06:59:55;;;;;;;15.63;8.73;;;12.50;99.90;;;;;;5031349;28;20058;-70
2022/09/16 07:02:21;;;;;;;14.75;7.15;;;12.60;99.90;;;;;;5030136;28;20525;-72
2022/09/16 07:04:47;;;;;;;11.52;8.68;;;12.40;99.90;;;;;;5031373;28;20021;-71
2022/09/16 07:07:12;;;;;;;15.00;10.02;;;12.40;99.90;;;;;;5029971;28;20024;-71
2022/09/16 07:09:39;;;;;;;15.20;9.93;;;12.40;99.90;;;;;;5029965;28;20054;-71
2022/09/16 07:12:05;;;;;;;13.05;10.25;;;12.40;99.90;;;;;;5033718;28;20070;-71
2022/09/16 07:14:34;;;;;;;15.45;9.63;;;12.40;99.90;;;;;;5031062;28;20025;-71
2022/09/16 07:17:01;;;;;;;14.30;9.93;;;12.40;99.90;;;;;;5029902;28;20144;-72
2022/09/16 07:19:27;;;;;;;19.85;11.40;;;12.40;99.90;;;;;;5031167;28;20018;-71
2022/09/16 07:21:53;;;;;;;17.05;10.10;;;12.40;99.90;;;;;;5031045;28;20033;-71
2022/09/16 07:24:19;;;;;;;15.88;10.32;;;12.50;99.90;;;;;;5039020;28;20382;-71
2022/09/16 07:26:45;;;;;;;18.75;10.38;;;12.70;99.90;;;;;;5034380;28;20029;-71
2022/09/16 07:29:16;;;;;;;16.80;10.40;;;12.80;99.90;;;;;;5030874;28;20051;-71
2022/09/16 07:31:42;;;;;;;14.48;9.55;;;12.90;99.90;;;;;;5047695;28;20013;-72
2022/09/16 07:34:10;;;;;;;19.38;11.20;;;13.00;99.90;;;;;;5050759;28;20462;-70
2022/09/16 07:36:44;;;;;;;14.55;10.38;;;12.90;99.90;;;;;;5049377;28;20033;-71
2022/09/16 07:39:12;;;;;;;17.85;10.07;;;13.00;99.90;;;;;;5036429;28;20389;-71
2022/09/16 07:41:40;;;;;;;15.18;10.93;;;13.10;99.90;;;;;;5031878;28;20085;-72
2022/09/16 07:44:08;;;;;;;14.30;10.32;;;13.20;99.90;;;;;;5033229;28;20491;-70
2022/09/16 07:46:35;;;;;;;16.77;12.20;;;13.30;99.90;;;;;;5029825;28;20029;-70
2022/09/16 07:49:03;;;;;;;18.95;12.10;;;13.40;99.90;;;;;;5029907;28;20032;-72
2022/09/16 07:51:30;;;;;;;16.17;11.25;;;13.60;99.90;;;;;;5029807;28;20021;-70
2022/09/16 07:53:59;;;;;;;16.98;11.77;;;13.60;99.90;;;;;;5029818;28;20146;-72
2022/09/16 07:56:27;;;;;;;18.83;12.13;;;13.60;99.90;;;;;;5036129;28;20129;-72
2022/09/16 07:58:54;;;;;;;13.18;11.07;;;13.60;99.90;;;;;;5031695;28;20025;-72
2022/09/16 08:01:20;;;;;;;17.25;11.18;;;13.70;99.90;;;;;;5034758;28;20021;-71
2022/09/16 08:03:46;;;;;;;18.55;10.85;;;13.70;99.90;;;;;;5028686;28;20090;-71
2022/09/16 08:06:17;;;;;;;16.20;10.68;;;13.80;99.90;;;;;;5030308;28;20100;-71
2022/09/16 08:08:43;;;;;;;13.75;8.77;;;13.80;99.90;;;;;;5029675;28;20078;-71
2022/09/16 08:11:11;;;;;;;13.85;6.75;;;13.90;99.90;;;;;;5030062;28;20035;-71
2022/09/16 08:13:37;;;;;;;8.32;5.70;;;13.80;99.90;;;;;;5028697;28;20390;-72
2022/09/16 08:16:05;;;;;;;5.75;4.00;;;13.90;99.90;;;;;;5046587;28;20076;-72
2022/09/16 08:18:31;;;;;;;6.63;4.50;;;13.90;99.90;;;;;;5049887;28;20078;-70
2022/09/16 08:20:58;;;;;;;14.50;5.35;;;14.00;99.90;;;;;;5050062;28;20420;-71
2022/09/16 08:23:23;;;;;;;5.85;3.97;;;14.20;99.90;;;;;;5042501;28;20108;-71
2022/09/16 08:25:59;;;;;;;4.60;2.67;;;14.30;99.90;;;;;;5039544;28;20053;-72
2022/09/16 08:28:26;;;;;;;7.25;2.90;;;14.50;99.90;;;;;;5038947;28;20100;-71
2022/09/16 08:30:52;;;;;;;6.88;3.03;;;14.50;99.90;;;;;;5038409;28;20486;-70
2022/09/16 08:33:20;;;;;;;5.85;3.08;;;14.60;99.90;;;;;;5038165;28;20013;-71
2022/09/16 08:36:04;;;;;;;4.72;3.15;;;14.40;99.90;;;;;;5032033;28;20061;-71
2022/09/16 08:38:31;;;;;;;3.50;2.42;;;14.30;99.90;;;;;;5029921;28;20113;-71
2022/09/16 08:41:35;;;;;;;3.63;2.53;;;14.30;99.90;;;;;;5028996;28;20387;-71
2022/09/16 08:44:33;;;;;;;5.40;2.60;;;14.20;99.90;;;;;;5030926;28;20383;-72
2022/09/16 08:47:05;;;;;;;2.70;2.45;;;14.10;99.90;;;;;;5048753;28;20390;-71
2022/09/16 08:49:45;;;;;;;6.40;3.38;;;14.20;99.90;;;;;;5048850;28;20474;-71
2022/09/16 08:52:11;;;;;;;2.92;2.10;;;14.30;99.90;;;;;;5049999;28;20017;-71
2022/09/16 08:54:46;;;;;;;3.42;2.30;;;14.40;99.90;;;;;;5049597;28;20514;-71
2022/09/16 08:57:20;;;;;;;4.53;2.40;;;14.60;99.90;;;;;;5048491;28;20025;-72
2022/09/16 08:59:51;;;;;;;5.43;2.70;;;14.80;99.90;;;;;;5037417;28;20137;-71
2022/09/16 09:02:46;;;;;;;4.75;2.75;;;14.90;99.90;;;;;;5029009;28;20025;-71
2022/09/16 09:05:48;;;;;;;6.43;3.80;;;15.00;99.90;;;;;;5034654;28;20032;-71
2022/09/16 09:08:14;;;;;;;8.53;5.20;;;15.10;99.90;;;;;;5046084;28;20104;-72
2022/09/16 09:10:51;;;;;;;7.45;5.10;;;15.00;99.90;;;;;;5048853;28;20064;-72
2022/09/16 09:13:36;;;;;;;7.03;4.47;;;15.20;99.90;;;;;;5048679;28;20100;-72
2022/09/16 09:16:17;;;;;;;5.28;4.70;;;15.40;99.90;;;;;;5048659;28;20045;-72
2022/09/16 09:19:02;;;;;;;11.52;6.63;;;15.20;99.90;;;;;;5049550;28;20021;-71
2022/09/16 09:22:02;;;;;;;11.20;6.78;;;15.10;99.90;;;;;;5049892;28;20029;-72
2022/09/16 09:24:37;;;;;;;9.00;7.07;;;15.10;99.90;;;;;;5038232;28;20551;-71
2022/09/16 09:27:16;;;;;;;10.07;7.15;;;15.00;99.90;;;;;;5033096;28;20037;-71
2022/09/16 09:30:02;;;;;;;10.40;4.90;;;14.90;99.90;;;;;;5032583;28;20013;-72
2022/09/16 09:32:45;;;;;;;7.05;4.97;;;14.60;99.90;;;;;;5040965;28;20108;-72
2022/09/16 09:35:29;;;;;;;7.43;5.93;;;14.40;99.90;;;;;;5048320;28;20062;-72
2022/09/16 09:38:10;;;;;;;4.95;4.32;;;14.30;99.90;;;;;;5052812;28;20025;-70
2022/09/16 09:40:57;;;;;;;6.05;4.53;;;14.40;99.90;;;;;;5052706;28;20056;-71
2022/09/16 09:43:33;;;;;;;5.53;4.05;;;14.50;99.90;;;;;;5052702;28;20029;-71
2022/09/16 09:46:14;;;;;;;3.38;3.08;;;14.60;99.90;;;;;;5035628;28;20018;-72
2022/09/16 09:49:02;;;;;;;4.57;4.00;;;14.60;99.90;;;;;;5031455;28;20614;-72
2022/09/16 09:51:54;;;;;;;5.93;4.18;;;14.80;99.90;;;;;;5030777;28;20057;-72
2022/09/16 09:54:26;;;;;;;6.10;4.30;;;14.90;99.90;;;;;;5038602;28;20548;-71
2022/09/16 09:57:04;;;;;;;5.65;4.50;;;15.20;99.90;;;;;;5030424;28;20038;-71
2022/09/16 09:59:47;;;;;;;4.32;3.45;;;15.60;99.90;;;;;;5030180;28;20064;-71
2022/09/16 10:02:20;;;;;;;5.03;3.78;;;16.10;99.10;;;;;;5032066;28;20097;-73
2022/09/16 10:04:46;;;;;;;4.97;4.47;;;16.30;91.10;;;;;;5032268;27;20074;-71
2022/09/16 10:07:14;;;;;;;5.10;4.43;;;16.70;94.70;;;;;;5032471;28;20018;-71
2022/09/16 10:09:55;;;;;;;5.28;4.50;;;16.90;83.90;;;;;;5030907;28;20360;-72
2022/09/16 10:12:33;;;;;;;6.95;4.57;;;17.00;84.40;;;;;;5032376;28;20026;-71
2022/09/16 10:15:00;;;;;;;5.70;5.00;;;16.90;82.20;;;;;;5032119;28;20029;-71
2022/09/16 10:17:29;;;;;;;4.78;3.58;;;17.00;85.70;;;;;;5032163;28;20070;-72
2022/09/16 10:19:59;;;;;;;2.72;2.17;;;17.00;85.20;;;;;;5032059;28;20029;-72
2022/09/16 10:22:28;;;;;;;3.22;2.60;;;16.40;76.70;;;;;;5032444;28;20355;-71
2022/09/16 10:25:01;;;;;;;2.35;2.17;;;16.30;80.40;;;;;;5032059;28;20026;-71
2022/09/16 10:27:35;;;;;;;2.75;1.60;;;16.30;80.30;;;;;;5030816;28;20033;-71
2022/09/16 10:30:13;;;;;;;3.30;1.85;;;16.30;76.00;;;;;;5035871;28;20423;-71
2022/09/16 10:32:48;;;;;;;2.92;2.47;;;16.30;75.20;;;;;;5051558;28;20025;-72
2022/09/16 10:35:28;;;;;;;3.50;1.90;;;16.20;75.30;;;;;;5051701;28;20493;-71
2022/09/16 10:38:18;;;;;;;3.13;1.98;;;16.30;80.40;;;;;;5051752;28;20025;-71
2022/09/16 10:40:56;;;;;;;6.63;2.00;;;16.20;78.50;;;;;;5053842;28;20470;-71
2022/09/16 10:43:24;;;;;;;2.65;2.30;;;16.30;78.40;;;;;;5051766;28;20044;-72
2022/09/16 10:45:52;;;;;;;2.13;1.58;;;16.20;79.20;;;;;;5035485;28;20479;-72
2022/09/16 10:48:20;;;;;;;2.42;2.10;;;16.00;76.80;;;;;;5031780;28;20017;-71
2022/09/16 10:51:01;;;;;;;4.50;2.25;;;16.00;77.50;;;;;;5031614;28;20021;-72
2022/09/16 10:53:30;;;;;;;2.55;1.98;;;15.90;84.50;;;;;;5031914;28;20022;-71
2022/09/16 10:56:01;;;;;;;2.42;2.22;;;16.00;90.40;;;;;;5031479;28;20048;-71
2022/09/16 10:58:27;;;;;;;3.75;2.30;;;16.00;85.60;;;;;;5031632;28;20074;-71
2022/09/16 11:01:11;;;;;;;2.60;2.40;;;15.90;82.10;;;;;;5031565;28;20443;-72
2022/09/16 11:04:24;;;;;;;6.82;2.60;;;15.80;83.70;;;;;;5031534;28;20025;-71
2022/09/16 11:07:05;;;;;;;6.20;2.88;;;15.80;83.10;;;;;;5042730;28;20078;-71
2022/09/16 11:09:56;;;;;;;4.65;2.85;;;15.80;81.60;;;;;;5031435;28;20029;-71
2022/09/16 11:12:32;;;;;;;3.15;2.90;;;15.80;83.70;;;;;;5031304;28;20021;-72
2022/09/16 11:15:22;;;;;;;6.43;4.20;;;16.10;85.40;;;;;;5031279;28;20029;-72
2022/09/16 11:17:53;;;;;;;4.55;3.38;;;16.30;83.20;;;;;;5030172;28;20033;-71
2022/09/16 11:20:51;;;;;;;5.97;3.50;;;16.30;82.90;;;;;;5031279;28;20026;-72
2022/09/16 11:23:29;;;;;;;3.35;3.05;;;16.80;88.20;;;;;;5031351;28;20014;-72
2022/09/16 11:26:06;;;;;;;4.25;2.40;;;16.90;80.70;;;;;;5031171;28;20021;-71
2022/09/16 11:28:54;;;;;;;4.45;2.50;;;16.90;76.30;;;;;;5029856;28;20025;-73
2022/09/16 11:31:29;;;;;;;3.40;2.30;;;16.90;73.00;;;;;;5046230;28;20090;-72
2022/09/16 11:34:02;;;;;;;2.60;2.28;;;16.90;72.10;;;;;;5050986;28;20454;-72
2022/09/16 11:37:05;;;;;;;4.13;2.50;;;17.20;74.80;;;;;;5049538;28;20462;-72
2022/09/16 11:39:49;;;;;;;2.45;2.20;;;17.60;74.10;;;;;;5050906;28;20467;-71
2022/09/16 11:42:34;;;;;;;3.22;2.20;;;17.70;70.40;;;;;;5049578;28;20025;-71
2022/09/16 11:45:19;;;;;;;3.38;2.33;;;17.30;69.10;;;;;;5040445;28;20021;-72
2022/09/16 11:48:03;;;;;;;1.92;1.75;;;17.10;69.50;;;;;;5030848;28;20024;-71
2022/09/16 11:50:43;;;;;;;2.25;1.60;;;17.00;69.40;;;;;;5030878;28;20394;-71
2022/09/16 11:53:27;;;;;;;2.10;1.63;;;16.70;69.10;;;;;;5030738;28;20021;-71
2022/09/16 11:56:01;;;;;;;2.25;1.55;;;16.60;73.30;;;;;;5030643;28;20045;-71
2022/09/16 11:58:54;;;;;;;1.80;1.70;;;16.30;73.00;;;;;;5030727;28;20537;-72
2022/09/16 12:02:00;;;;;;;3.40;1.30;;;15.80;73.80;;;;;;5093698;28;20025;-71
2022/09/16 12:04:36;;;;;;;2.13;1.83;;;15.60;77.10;;;;;;5051387;28;20471;-71
2022/09/16 12:07:22;;;;;;;4.85;1.92;;;15.40;78.50;;;;;;5089632;28;20035;-72
2022/09/16 12:09:50;;;;;;;1.63;1.52;;;15.60;81.80;;;;;;5093705;28;20107;-72
2022/09/16 12:12:24;;;;;;;4.93;2.45;;;15.80;84.20;;;;;;5093587;28;20024;-72
2022/09/16 12:15:14;;;;;;;1.77;1.67;;;16.20;80.60;;;;;;5093498;28;20367;-71
2022/09/16 12:17:46;;;;;;;2.00;1.52;;;16.30;77.10;;;;;;5093319;28;20385;-72
2022/09/16 12:20:19;;;;;;;2.85;1.52;;;16.20;73.00;;;;;;5093200;28;20031;-71
2022/09/16 12:23:18;;;;;;;1.83;1.30;;;16.00;74.50;;;;;;5093420;28;20351;-72
2022/09/16 12:25:50;;;;;;;1.58;1.48;;;16.00;76.90;;;;;;5086485;28;20035;-71
2022/09/16 12:28:25;;;;;;;2.00;1.50;;;16.10;79.90;;;;;;5093502;28;20020;-72
2022/09/16 12:31:03;;;;;;;1.83;1.65;;;16.10;80.60;;;;;;5104169;28;20381;-72
2022/09/16 12:33:37;;;;;;;1.75;1.63;;;16.20;81.60;;;;;;5093269;28;20106;-72
2022/09/16 12:36:07;;;;;;;2.95;1.50;;;16.10;81.30;;;;;;5091771;28;20123;-73
2022/09/16 12:38:33;;;;;;;1.70;1.58;;;16.10;81.10;;;;;;5093122;28;20027;-72
2022/09/16 12:41:35;;;;;;;3.25;2.03;;;16.10;81.50;;;;;;5093344;28;20040;-71
2022/09/16 12:44:21;;;;;;;1.33;1.23;;;16.00;79.10;;;;;;5089377;28;20036;-72
2022/09/16 12:47:06;;;;;;;2.63;1.80;;;15.90;80.90;;;;;;5113623;28;20095;-72
2022/09/16 12:50:09;;;;;;;4.47;2.25;;;15.90;82.30;;;;;;5113620;28;20062;-72
2022/09/16 12:52:46;;;;;;;3.88;3.15;;;15.90;84.30;;;;;;5113566;28;20023;-71
2022/09/16 12:55:33;;;;;;;4.47;3.60;;;15.90;88.90;;;;;;5114933;28;20491;-71
2022/09/16 12:58:26;;;;;;;5.57;3.72;;;16.10;96.20;;;;;;5117505;28;20028;-72
2022/09/16 13:01:24;;;;;;;4.82;3.90;;;16.20;90.80;;;;;;5061477;28;20132;-72
2022/09/16 13:03:56;;;;;;;6.57;3.72;;;16.10;90.80;;;;;;5052758;28;20112;-72
2022/09/16 13:06:33;;;;;;;;;;;16.10;93.30;;;;;;5053659;28;20025;-73
2022/09/16 13:09:26;;;;;;;2.78;2.38;;;16.20;94.10;;;;;;5053113;28;20372;-72